Time;durP1;ratioP1;P1;durP2;ratioP2;P2;SDS_P1;SDS_P2;PMS_P1;PMS_P2;Temp;Humidity;BMP_temperature;BMP_pressure;BME280_temperature;BME280_humidity;BME280_pressure;Samples;Min_cycle;Max_cycle;Signal;HPM_P1;HPM_P2
2023/10/13 00:01:11;;;;;;;57.40;2.83;;;;;;;;;;5051159;28;20462;-72
2023/10/13 00:03:39;;;;;;;56.50;2.57;;;;;;;;;;5050842;28;20461;-72
2023/10/13 00:06:08;;;;;;;57.50;3.03;;;;;;;;;;5050653;28;20535;-72
2023/10/13 00:08:38;;;;;;;57.37;3.50;;;;;;;;;;5050871;28;20499;-71
2023/10/13 00:11:05;;;;;;;56.47;2.70;;;;;;;;;;5050619;28;20531;-72
2023/10/13 00:13:40;;;;;;;59.90;3.70;;;;;;;;;;5050428;28;20961;-72
2023/10/13 00:16:09;;;;;;;57.20;2.87;;;;;;;;;;5050808;28;20538;-72
2023/10/13 00:18:41;;;;;;;57.07;3.13;;;;;;;;;;5052306;28;20478;-72
2023/10/13 00:21:13;;;;;;;56.63;2.80;;;;;;;;;;5055484;28;20477;-71
2023/10/13 00:23:43;;;;;;;57.17;3.33;;;;;;;;;;5054773;28;20928;-71
2023/10/13 00:26:10;;;;;;;58.00;3.17;;;;;;;;;;5054820;28;20452;-72
2023/10/13 00:28:46;;;;;;;57.27;3.60;;;;;;;;;;5054512;28;20641;-72
2023/10/13 00:31:14;;;;;;;60.30;3.87;;;;;;;;;;5054593;28;20892;-72
2023/10/13 00:33:42;;;;;;;57.47;3.03;;;;;;;;;;5055058;28;20541;-71
2023/10/13 00:36:17;;;;;;;56.93;2.80;;;;;;;;;;5054689;28;20461;-72
2023/10/13 00:38:48;;;;;;;56.80;2.73;;;;;;;;;;5054471;28;20887;-71
2023/10/13 00:41:16;;;;;;;57.20;2.80;;;;;;;;;;5054403;28;20479;-71
2023/10/13 00:44:03;;;;;;;56.80;2.70;;;;;;;;;;5054710;28;20448;-73
2023/10/13 00:46:33;;;;;;;75.93;4.17;;;;;;;;;;5054433;28;20947;-72
2023/10/13 00:49:00;;;;;;;57.80;3.90;;;;;;;;;;5054342;28;20540;-72
2023/10/13 00:51:35;;;;;;;57.30;3.20;;;;;;;;;;5054109;28;20456;-72
2023/10/13 00:54:02;;;;;;;58.07;3.47;;;;;;;;;;5054037;28;20472;-71
2023/10/13 00:56:31;;;;;;;57.53;3.53;;;;;;;;;;5054430;28;20483;-72
2023/10/13 00:59:02;;;;;;;57.50;3.37;;;;;;;;;;5053910;28;20467;-72
2023/10/13 01:01:32;;;;;;;58.83;3.47;;;;;;;;;;5053963;28;20495;-71
2023/10/13 01:03:59;;;;;;;57.40;3.67;;;;;;;;;;5053905;28;20502;-72
2023/10/13 01:06:27;;;;;;;57.83;4.50;;;;;;;;;;5053871;28;20816;-71
2023/10/13 01:09:10;;;;;;;56.70;2.40;;;;;;;;;;5053885;28;20567;-71
2023/10/13 01:11:36;;;;;;;56.90;2.90;;;;;;;;;;5053597;28;20452;-72
2023/10/13 01:14:04;;;;;;;56.43;2.83;;;;;;;;;;5053841;28;20456;-72
2023/10/13 01:16:30;;;;;;;56.47;2.67;;;;;;;;;;5053591;28;20460;-72
2023/10/13 01:18:59;;;;;;;56.80;3.13;;;;;;;;;;5053879;28;20876;-72
2023/10/13 01:21:27;;;;;;;57.57;4.57;;;;;;;;;;5053777;28;20455;-72
2023/10/13 01:23:56;;;;;;;59.90;3.70;;;;;;;;;;5053729;28;20531;-71
2023/10/13 01:26:24;;;;;;;57.57;3.63;;;;;;;;;;5053805;28;20456;-72
2023/10/13 01:28:51;;;;;;;57.77;3.07;;;;;;;;;;5053299;28;20491;-71
2023/10/13 01:31:28;;;;;;;57.27;3.50;;;;;;;;;;5052469;28;20494;-72
2023/10/13 01:33:58;;;;;;;56.60;2.50;;;;;;;;;;5053595;28;20444;-71
2023/10/13 01:36:25;;;;;;;57.13;3.60;;;;;;;;;;5053301;28;20539;-72
2023/10/13 01:38:53;;;;;;;56.80;2.90;;;;;;;;;;5053008;28;20464;-72
2023/10/13 01:41:21;;;;;;;56.80;3.00;;;;;;;;;;5053533;28;20482;-71
2023/10/13 01:43:49;;;;;;;56.57;2.50;;;;;;;;;;5052949;28;20531;-72
2023/10/13 01:46:19;;;;;;;57.30;2.67;;;;;;;;;;5053322;28;20494;-71
2023/10/13 01:48:46;;;;;;;57.77;4.60;;;;;;;;;;5052306;28;20480;-71
2023/10/13 01:51:13;;;;;;;56.40;2.60;;;;;;;;;;5053027;28;20853;-71
2023/10/13 01:53:39;;;;;;;56.70;2.50;;;;;;;;;;5052740;28;20453;-71
2023/10/13 01:56:10;;;;;;;56.87;2.57;;;;;;;;;;5053301;28;20446;-72
2023/10/13 01:58:41;;;;;;;56.83;2.53;;;;;;;;;;5052767;28;20554;-71
2023/10/13 02:01:09;;;;;;;56.83;2.73;;;;;;;;;;5052853;28;20548;-71
2023/10/13 02:03:40;;;;;;;56.60;2.40;;;;;;;;;;5052695;28;20529;-72
2023/10/13 02:06:16;;;;;;;56.47;2.50;;;;;;;;;;5053018;28;20504;-72
2023/10/13 02:08:43;;;;;;;56.90;2.80;;;;;;;;;;5052855;28;20488;-71
2023/10/13 02:11:10;;;;;;;57.20;2.93;;;;;;;;;;5052676;28;20453;-71
2023/10/13 02:13:42;;;;;;;56.87;2.93;;;;;;;;;;5052962;28;20444;-71
2023/10/13 02:16:11;;;;;;;56.87;3.03;;;;;;;;;;5052637;28;20534;-72
2023/10/13 02:18:41;;;;;;;57.20;3.50;;;;;;;;;;5052492;28;20589;-71
2023/10/13 02:21:13;;;;;;;56.60;2.80;;;;;;;;;;5052769;28;20491;-71
2023/10/13 02:23:44;;;;;;;56.67;2.63;;;;;;;;;;5052338;28;21018;-71
2023/10/13 02:26:13;;;;;;;58.90;5.33;;;;;;;;;;5052711;28;20461;-71
2023/10/13 02:28:40;;;;;;;58.07;4.13;;;;;;;;;;5052064;28;20499;-72
2023/10/13 02:31:07;;;;;;;56.53;2.57;;;;;;;;;;5052482;28;20444;-71
2023/10/13 02:33:34;;;;;;;56.90;3.13;;;;;;;;;;5052319;28;20468;-71
2023/10/13 02:36:04;;;;;;;58.40;3.23;;;;;;;;;;5052326;28;20440;-71
2023/10/13 02:38:34;;;;;;;56.73;2.93;;;;;;;;;;5052095;28;20524;-71
2023/10/13 02:41:05;;;;;;;56.77;2.80;;;;;;;;;;5051642;28;20449;-71
2023/10/13 02:43:33;;;;;;;56.40;2.70;;;;;;;;;;5051564;28;20570;-71
2023/10/13 02:46:02;;;;;;;56.60;2.67;;;;;;;;;;5051992;28;20447;-71
2023/10/13 02:48:30;;;;;;;56.80;2.97;;;;;;;;;;5051812;28;20864;-71
2023/10/13 02:51:14;;;;;;;56.90;3.00;;;;;;;;;;5052111;28;20531;-72
2023/10/13 02:53:41;;;;;;;57.30;3.20;;;;;;;;;;5051800;28;20503;-72
2023/10/13 02:56:08;;;;;;;56.47;2.43;;;;;;;;;;5051653;28;20524;-72
2023/10/13 02:58:38;;;;;;;56.97;3.17;;;;;;;;;;5051672;28;20556;-72
2023/10/13 03:01:17;;;;;;;56.47;2.40;;;;;;;;;;5051774;28;20835;-72
2023/10/13 03:03:50;;;;;;;56.80;2.83;;;;;;;;;;5051713;28;20446;-72
2023/10/13 03:06:18;;;;;;;56.70;2.60;;;;;;;;;;5051610;28;20898;-72
2023/10/13 03:08:44;;;;;;;56.80;3.00;;;;;;;;;;5051121;28;20987;-72
2023/10/13 03:11:13;;;;;;;57.17;2.97;;;;;;;;;;5051645;28;20448;-71
2023/10/13 03:13:44;;;;;;;57.93;2.87;;;;;;;;;;5051689;28;20725;-71
2023/10/13 03:16:17;;;;;;;56.90;3.57;;;;;;;;;;5051561;28;20544;-71
2023/10/13 03:18:56;;;;;;;56.60;2.60;;;;;;;;;;5051170;28;20503;-71
2023/10/13 03:21:28;;;;;;;57.60;2.77;;;;;;;;;;5051297;28;20933;-71
2023/10/13 03:23:56;;;;;;;56.70;2.57;;;;;;;;;;5051289;28;20564;-71
2023/10/13 03:26:22;;;;;;;58.17;3.00;;;;;;;;;;5051355;28;20459;-71
2023/10/13 03:28:52;;;;;;;56.97;2.77;;;;;;;;;;5051053;28;20491;-71
2023/10/13 03:31:25;;;;;;;56.60;2.73;;;;;;;;;;5050993;28;20450;-72
2023/10/13 03:33:58;;;;;;;57.17;3.07;;;;;;;;;;5051039;28;20932;-71
2023/10/13 03:36:57;;;;;;;56.37;2.60;;;;;;;;;;5051290;28;20456;-71
2023/10/13 03:39:28;;;;;;;56.87;2.87;;;;;;;;;;5050817;28;20456;-71
2023/10/13 03:41:56;;;;;;;57.37;3.07;;;;;;;;;;5050832;28;20446;-71
2023/10/13 03:44:23;;;;;;;56.90;2.90;;;;;;;;;;5051383;28;20447;-71
2023/10/13 03:46:54;;;;;;;59.10;4.90;;;;;;;;;;5051111;28;20538;-71
2023/10/13 03:49:22;;;;;;;56.40;2.70;;;;;;;;;;5051027;28;21015;-71
2023/10/13 03:51:53;;;;;;;57.00;2.80;;;;;;;;;;5050810;28;21176;-71
2023/10/13 03:54:20;;;;;;;56.47;2.57;;;;;;;;;;5050423;28;20446;-71
2023/10/13 03:56:52;;;;;;;56.50;2.50;;;;;;;;;;5050981;28;20827;-71
2023/10/13 03:59:19;;;;;;;56.80;2.90;;;;;;;;;;5050921;28;20466;-71
2023/10/13 04:01:47;;;;;;;56.60;2.67;;;;;;;;;;5050585;28;20547;-71
2023/10/13 04:04:33;;;;;;;57.17;3.37;;;;;;;;;;5050749;28;20489;-71
2023/10/13 04:07:14;;;;;;;56.60;2.40;;;;;;;;;;5050687;28;20454;-71
2023/10/13 04:15:21;;;;;;;56.60;2.70;;;;;;;;;;5011872;28;20446;-71
2023/10/13 04:17:50;;;;;;;56.60;2.63;;;;;;;;;;5050522;28;20970;-71
2023/10/13 04:20:38;;;;;;;56.97;3.43;;;;;;;;;;5050610;28;20830;-71
2023/10/13 04:28:50;;;;;;;57.63;3.33;;;;;;;;;;5043532;28;20550;-71
2023/10/13 04:31:46;;;;;;;56.30;2.40;;;;;;;;;;5050478;28;20871;-71
2023/10/13 04:34:19;;;;;;;56.50;2.70;;;;;;;;;;5050308;28;20502;-71
2023/10/13 04:36:55;;;;;;;56.50;2.50;;;;;;;;;;5050650;28;20511;-71
2023/10/13 04:39:29;;;;;;;56.40;2.77;;;;;;;;;;5050528;28;20469;-71
2023/10/13 04:42:13;;;;;;;57.20;3.97;;;;;;;;;;5050455;28;20460;-71
2023/10/13 04:44:48;;;;;;;57.50;2.80;;;;;;;;;;5050612;28;20934;-71
2023/10/13 04:47:21;;;;;;;56.17;2.60;;;;;;;;;;5050598;28;20448;-71
2023/10/13 04:49:52;;;;;;;57.73;3.10;;;;;;;;;;5050265;28;20580;-71
2023/10/13 04:52:50;;;;;;;57.90;4.00;;;;;;;;;;5050564;28;20888;-71
2023/10/13 04:55:24;;;;;;;57.53;3.37;;;;;;;;;;5044194;28;20486;-71
2023/10/13 04:58:00;;;;;;;57.03;2.97;;;;;;;;;;5050530;28;20512;-71
2023/10/13 05:44:32;;;;;;;56.57;2.60;;;;;;;;;;5043369;28;20606;-71
2023/10/13 05:44:56;;;;;;;56.67;2.87;;;;;;;;;;5053138;28;20438;-71
2023/10/13 05:50:28;;;;;;;56.40;2.33;;;;;;;;;;5052984;28;20847;-71
2023/10/13 06:29:19;;;;;;;56.80;2.90;;;;;;;;;;5038892;28;20484;-72
2023/10/13 06:31:48;;;;;;;56.67;2.73;;;;;;;;;;5052260;28;20449;-72
2023/10/13 06:34:16;;;;;;;56.63;3.17;;;;;;;;;;5051896;28;20557;-72
2023/10/13 06:36:46;;;;;;;56.93;3.27;;;;;;;;;;5052023;28;20526;-72
2023/10/13 06:39:34;;;;;;;56.50;2.70;;;;;;;;;;5044562;28;21003;-72
2023/10/13 06:42:02;;;;;;;56.60;2.90;;;;;;;;;;5052277;28;20549;-72
2023/10/13 06:44:32;;;;;;;57.90;2.63;;;;;;;;;;5052006;28;20502;-72
2023/10/13 06:47:03;;;;;;;57.40;3.27;;;;;;;;;;5052224;28;21133;-73
2023/10/13 06:49:32;;;;;;;56.23;2.57;;;;;;;;;;5051756;28;21059;-72
2023/10/13 06:52:00;;;;;;;56.50;2.50;;;;;;;;;;5052091;28;21066;-72
2023/10/13 06:54:28;;;;;;;56.23;2.70;;;;;;;;;;5051995;28;20453;-72
2023/10/13 06:56:56;;;;;;;57.67;4.63;;;;;;;;;;5051869;28;20485;-72
2023/10/13 06:59:26;;;;;;;57.07;3.30;;;;;;;;;;5051105;28;20475;-72
2023/10/13 07:01:53;;;;;;;56.20;2.73;;;;;;;;;;5046371;28;20468;-72
2023/10/13 07:04:22;;;;;;;58.70;2.70;;;;;;;;;;5051210;28;20828;-72
2023/10/13 07:06:49;;;;;;;56.37;2.37;;;;;;;;;;5050957;28;20460;-72
2023/10/13 07:09:39;;;;;;;56.27;2.40;;;;;;;;;;5050901;28;20484;-72
2023/10/13 07:12:07;;;;;;;56.67;3.63;;;;;;;;;;5050794;28;20455;-72
2023/10/13 07:14:35;;;;;;;59.30;4.20;;;;;;;;;;5051703;28;20446;-73
2023/10/13 07:17:04;;;;;;;56.90;2.60;;;;;;;;;;5051665;28;20448;-73
2023/10/13 07:19:33;;;;;;;57.27;3.10;;;;;;;;;;5051608;28;20501;-73
2023/10/13 07:22:18;;;;;;;57.67;3.23;;;;;;;;;;5051438;28;20457;-71
2023/10/13 07:24:48;;;;;;;56.83;2.60;;;;;;;;;;5051246;28;20828;-71
2023/10/13 07:27:22;;;;;;;56.20;2.50;;;;;;;;;;5051207;28;20991;-71
2023/10/13 07:29:55;;;;;;;56.60;3.20;;;;;;;;;;5051095;28;20495;-71
2023/10/13 07:32:25;;;;;;;60.00;5.07;;;;;;;;;;5051237;28;20455;-71
2023/10/13 07:34:56;;;;;;;57.20;2.80;;;;;;;;;;5051597;28;20461;-71
2023/10/13 07:37:27;;;;;;;56.77;3.63;;;;;;;;;;5051152;28;20489;-71
2023/10/13 07:39:57;;;;;;;56.47;2.80;;;;;;;;;;5051134;28;20491;-72
2023/10/13 07:42:30;;;;;;;56.20;2.60;;;;;;;;;;5051157;28;20453;-72
2023/10/13 07:44:57;;;;;;;57.67;2.70;;;;;;;;;;5050929;28;20456;-72
2023/10/13 07:47:26;;;;;;;56.30;2.53;;;;;;;;;;5051555;28;20452;-72
2023/10/13 07:49:56;;;;;;;56.87;2.73;;;;;;;;;;5050872;28;20576;-72
2023/10/13 07:52:36;;;;;;;56.50;3.10;;;;;;;;;;5050763;28;20457;-72
2023/10/13 07:55:12;;;;;;;56.97;2.70;;;;;;;;;;5051155;28;20503;-72
2023/10/13 07:57:53;;;;;;;56.60;3.10;;;;;;;;;;5051088;28;20542;-72
2023/10/13 08:00:38;;;;;;;56.10;2.20;;;;;;;;;;5043534;28;20451;-72
2023/10/13 08:03:20;;;;;;;56.87;2.53;;;;;;;;;;5050838;28;20444;-71
2023/10/13 08:06:04;;;;;;;56.90;2.60;;;;;;;;;;5051007;28;20479;-71
2023/10/13 08:08:37;;;;;;;57.00;3.50;;;;;;;;;;5050502;28;20983;-71
2023/10/13 08:11:11;;;;;;;56.00;2.10;;;;;;;;;;5050892;28;20460;-71
2023/10/13 08:13:38;;;;;;;56.20;2.50;;;;;;;;;;5050773;28;20467;-71
2023/10/13 08:16:08;;;;;;;56.60;2.73;;;;;;;;;;5051036;28;20477;-71
2023/10/13 08:18:35;;;;;;;56.37;2.33;;;;;;;;;;5050589;28;20480;-71
2023/10/13 08:21:05;;;;;;;56.13;2.27;;;;;;;;;;5051087;28;20900;-71
2023/10/13 08:23:57;;;;;;;56.43;2.67;;;;;;;;;;5050734;28;20446;-72
2023/10/13 08:26:29;;;;;;;56.70;2.37;;;;;;;;;;5043558;28;20440;-72
2023/10/13 08:28:57;;;;;;;55.97;2.00;;;;;;;;;;5050428;28;20496;-72
2023/10/13 08:31:25;;;;;;;56.87;2.27;;;;;;;;;;5050504;28;20496;-72
2023/10/13 08:34:05;;;;;;;56.47;2.50;;;;;;;;;;5050364;28;20820;-72
2023/10/13 08:36:37;;;;;;;57.10;3.17;;;;;;;;;;5050817;28;20447;-72
2023/10/13 08:39:23;;;;;;;56.70;2.50;;;;;;;;;;5051475;28;20474;-72
2023/10/13 08:41:58;;;;;;;56.43;2.50;;;;;;;;;;5054230;28;20448;-72
2023/10/13 08:44:33;;;;;;;56.13;2.20;;;;;;;;;;5054492;28;20458;-72
2023/10/13 08:47:17;;;;;;;56.07;2.07;;;;;;;;;;5054540;28;20470;-72
2023/10/13 08:49:50;;;;;;;56.17;3.27;;;;;;;;;;5054085;28;20585;-72
2023/10/13 08:58:02;;;;;;;56.30;2.30;;;;;;;;;;5054076;28;20428;-72
2023/10/13 09:00:55;;;;;;;56.60;2.40;;;;;;;;;;5053873;28;20469;-72
2023/10/13 09:03:29;;;;;;;56.17;2.00;;;;;;;;;;5053763;28;20828;-72
2023/10/13 09:06:00;;;;;;;57.10;2.40;;;;;;;;;;5053888;28;20443;-72
2023/10/13 09:08:35;;;;;;;56.30;2.50;;;;;;;;;;5053807;28;20457;-72
2023/10/13 09:11:11;;;;;;;56.50;2.20;;;;;;;;;;5053669;28;20445;-72
2023/10/13 09:13:43;;;;;;;55.97;2.40;;;;;;;;;;5053975;28;20458;-71
2023/10/13 09:16:15;;;;;;;56.60;2.40;;;;;;;;;;5053847;28;20455;-70
2023/10/13 09:18:52;;;;;;;56.17;1.93;;;;;;;;;;5053560;28;20530;-71
2023/10/13 09:24:21;;;;;;;56.67;2.40;;;;;;;;;;5053623;28;20799;-71
2023/10/13 09:26:49;;;;;;;56.00;2.20;;;;;;;;;;5053620;28;20468;-72
2023/10/13 09:29:18;;;;;;;56.60;2.50;;;;;;;;;;5053194;28;20495;-72
2023/10/13 09:31:44;;;;;;;56.03;2.30;;;;;;;;;;5053361;28;20453;-71
2023/10/13 09:34:12;;;;;;;56.13;2.07;;;;;;;;;;5053324;28;20464;-72
2023/10/13 09:36:38;;;;;;;55.27;2.07;;;;;;;;;;5053473;28;20464;-72
2023/10/13 09:39:25;;;;;;;56.37;2.40;;;;;;;;;;5053206;28;20483;-72
2023/10/13 09:41:53;;;;;;;56.70;2.50;;;;;;;;;;5053156;28;20455;-72
2023/10/13 09:44:21;;;;;;;56.23;2.40;;;;;;;;;;5044905;28;20451;-72
2023/10/13 09:46:49;;;;;;;56.00;2.03;;;;;;;;;;5053393;28;20461;-72
2023/10/13 09:49:33;;;;;;;55.60;2.00;;;;;;;;;;5053314;28;20484;-72
2023/10/13 09:52:04;;;;;;;56.60;2.30;;;;;;;;;;5052222;28;20456;-72
2023/10/13 09:54:36;;;;;;;56.20;1.90;;;;;;;;;;5052949;28;20447;-71
2023/10/13 09:57:10;;;;;;;56.90;2.37;;;;;;;;;;5052803;28;21080;-72
2023/10/13 09:59:40;;;;;;;56.10;2.40;;;;;;;;;;5052700;28;20983;-72
2023/10/13 10:02:09;;;;;;;55.90;2.17;;;;;;;;;;5052689;28;20543;-72
2023/10/13 10:04:44;;;;;;;56.30;2.13;;;;;;;;;;5052785;28;20453;-72
2023/10/13 10:07:11;;;;;;;57.20;2.07;;;;;;;;;;5052597;28;20447;-72
2023/10/13 10:09:38;;;;;;;56.30;2.13;;;;;;;;;;5052541;28;21063;-72
2023/10/13 10:12:18;;;;;;;55.77;2.13;;;;;;;;;;5052707;28;20788;-72
2023/10/13 10:15:01;;;;;;;56.53;2.13;;;;;;;;;;5052816;28;20462;-72
2023/10/13 10:17:33;;;;;;;56.37;3.13;;;;;;;;;;5052822;28;20442;-72
2023/10/13 10:20:06;;;;;;;55.60;1.87;;;;;;;;;;5053018;28;20474;-72
2023/10/13 10:22:35;;;;;;;55.70;1.80;;;;;;;;;;5052416;28;20456;-72
2023/10/13 10:25:06;;;;;;;55.90;2.20;;;;;;;;;;5049213;28;20460;-72
2023/10/13 10:27:34;;;;;;;56.30;2.27;;;;;;;;;;5052167;28;20831;-71
2023/10/13 10:30:03;;;;;;;56.87;2.23;;;;;;;;;;5049992;28;20493;-72
2023/10/13 10:32:34;;;;;;;55.20;2.00;;;;;;;;;;5052492;28;20454;-72
2023/10/13 10:35:14;;;;;;;55.50;2.20;;;;;;;;;;5052211;28;20923;-73
2023/10/13 10:37:46;;;;;;;56.00;2.20;;;;;;;;;;5052275;28;20474;-72
2023/10/13 10:40:33;;;;;;;55.70;2.13;;;;;;;;;;5051968;28;20501;-72
2023/10/13 10:43:00;;;;;;;55.80;2.00;;;;;;;;;;5052625;28;20456;-73
2023/10/13 10:45:32;;;;;;;57.37;2.60;;;;;;;;;;5052541;28;20462;-73
2023/10/13 10:47:59;;;;;;;55.80;1.90;;;;;;;;;;5052077;28;20453;-73
2023/10/13 10:50:34;;;;;;;55.67;1.83;;;;;;;;;;5052195;28;20482;-74
2023/10/13 10:53:01;;;;;;;55.70;1.97;;;;;;;;;;5051744;28;21034;-74
2023/10/13 10:55:30;;;;;;;56.00;1.90;;;;;;;;;;5052342;28;20910;-73
2023/10/13 10:58:01;;;;;;;55.97;2.17;;;;;;;;;;5052008;28;20458;-73
2023/10/13 11:00:41;;;;;;;55.90;2.27;;;;;;;;;;5051890;28;20827;-72
2023/10/13 11:03:11;;;;;;;56.23;2.23;;;;;;;;;;5050884;28;20500;-72
2023/10/13 11:05:44;;;;;;;56.00;2.33;;;;;;;;;;5051645;28;20463;-72
2023/10/13 11:08:25;;;;;;;55.80;2.00;;;;;;;;;;5051494;28;22799;-73
2023/10/13 11:10:54;;;;;;;55.50;1.77;;;;;;;;;;5051710;28;20578;-72
2023/10/13 11:13:22;;;;;;;56.17;2.47;;;;;;;;;;5051573;28;20934;-73
2023/10/13 11:15:50;;;;;;;56.03;2.47;;;;;;;;;;5051592;28;20457;-72
2023/10/13 11:18:20;;;;;;;55.57;1.93;;;;;;;;;;5051378;28;20831;-74
2023/10/13 11:20:53;;;;;;;55.60;2.07;;;;;;;;;;5051308;28;20993;-72
2023/10/13 11:23:25;;;;;;;55.67;2.00;;;;;;;;;;5051304;28;20451;-72
2023/10/13 11:26:00;;;;;;;55.60;2.07;;;;;;;;;;5051393;28;20447;-73
2023/10/13 11:28:28;;;;;;;56.07;1.97;;;;;;;;;;5050877;28;20519;-73
2023/10/13 11:30:58;;;;;;;55.40;1.90;;;;;;;;;;5051128;28;20446;-73
2023/10/13 11:33:27;;;;;;;55.40;1.67;;;;;;;;;;5051357;28;20451;-72
2023/10/13 11:35:57;;;;;;;55.47;1.90;;;;;;;;;;5051106;28;20459;-72
2023/10/13 11:38:28;;;;;;;55.00;1.80;;;;;;;;;;5051371;28;20475;-72
2023/10/13 11:41:08;;;;;;;57.20;2.63;;;;;;;;;;5050830;28;20530;-73
2023/10/13 11:43:52;;;;;;;55.57;1.83;;;;;;;;;;5051032;28;20461;-73
2023/10/13 11:46:55;;;;;;;55.70;2.83;;;;;;;;;;5051134;28;21031;-72
2023/10/13 11:49:17;;;;;;;55.00;1.83;;;;;;;;;;5050602;28;20512;-73
2023/10/13 11:51:45;;;;;;;55.20;1.70;;;;;;;;;;5050958;28;20462;-72
2023/10/13 11:54:12;;;;;;;56.00;2.10;;;;;;;;;;5050870;28;20451;-73
2023/10/13 11:56:39;;;;;;;54.80;1.50;;;;;;;;;;5051010;28;20494;-72
2023/10/13 11:59:16;;;;;;;55.27;2.00;;;;;;;;;;5051081;28;21000;-72
2023/10/13 12:04:43;;;;;;;55.40;1.90;;;;;;;;;;5050985;28;20431;-73
2023/10/13 12:07:19;;;;;;;55.60;2.20;;;;;;;;;;5049939;28;20926;-73
2023/10/13 12:10:03;;;;;;;55.20;1.90;;;;;;;;;;5045612;28;21029;-72
2023/10/13 12:12:31;;;;;;;55.80;2.03;;;;;;;;;;5045842;28;20509;-73
2023/10/13 12:15:09;;;;;;;55.20;1.80;;;;;;;;;;5050611;28;20456;-72
2023/10/13 12:17:36;;;;;;;55.40;1.90;;;;;;;;;;5050813;28;20458;-72
2023/10/13 12:20:05;;;;;;;55.37;1.70;;;;;;;;;;5050497;28;20498;-72
2023/10/13 12:22:38;;;;;;;55.30;1.90;;;;;;;;;;5050512;28;20454;-72
2023/10/13 12:25:18;;;;;;;55.20;1.80;;;;;;;;;;5050588;28;20460;-72
2023/10/13 12:27:48;;;;;;;55.90;3.00;;;;;;;;;;5050900;28;20519;-72
2023/10/13 12:30:22;;;;;;;55.40;1.80;;;;;;;;;;5050454;28;20471;-72
2023/10/13 12:33:06;;;;;;;54.90;1.60;;;;;;;;;;5050522;28;20487;-72
2023/10/13 12:35:44;;;;;;;55.00;1.77;;;;;;;;;;5043046;28;20486;-72
2023/10/13 12:38:36;;;;;;;54.80;1.70;;;;;;;;;;5050348;28;20542;-72
2023/10/13 12:49:49;;;;;;;54.93;2.00;;;;;;;;;;5050401;28;20818;-73
2023/10/13 12:52:19;;;;;;;55.60;2.30;;;;;;;;;;5067670;28;20462;-71
2023/10/13 12:54:47;;;;;;;55.20;1.70;;;;;;;;;;5071454;28;20522;-71
2023/10/13 12:57:15;;;;;;;55.10;1.60;;;;;;;;;;5072648;28;20510;-72
2023/10/13 12:59:42;;;;;;;56.67;2.07;;;;;;;;;;5073946;28;20466;-71
2023/10/13 13:02:14;;;;;;;56.93;2.37;;;;;;;;;;5073524;28;20482;-71
2023/10/13 13:04:44;;;;;;;56.07;2.17;;;;;;;;;;5074133;28;20438;-71
2023/10/13 13:07:13;;;;;;;55.60;2.00;;;;;;;;;;5073676;28;20441;-71
2023/10/13 13:09:40;;;;;;;55.47;2.00;;;;;;;;;;5073324;28;20473;-71
2023/10/13 13:12:07;;;;;;;55.30;2.03;;;;;;;;;;5074653;28;20485;-71
2023/10/13 13:14:35;;;;;;;55.53;1.90;;;;;;;;;;5073805;28;20544;-71
2023/10/13 13:17:05;;;;;;;55.40;1.90;;;;;;;;;;5074591;28;20455;-72
2023/10/13 13:19:36;;;;;;;55.03;2.10;;;;;;;;;;5074097;28;20459;-72
2023/10/13 13:22:04;;;;;;;55.93;2.33;;;;;;;;;;5074242;28;20478;-72
2023/10/13 13:24:31;;;;;;;54.77;1.80;;;;;;;;;;5072456;28;20531;-72
2023/10/13 13:27:02;;;;;;;55.37;2.17;;;;;;;;;;5075262;28;20523;-71
2023/10/13 13:29:30;;;;;;;54.43;1.60;;;;;;;;;;5077141;28;20463;-71
2023/10/13 13:31:57;;;;;;;54.73;1.80;;;;;;;;;;5077532;28;20449;-71
2023/10/13 13:34:26;;;;;;;55.40;2.63;;;;;;;;;;5062935;28;20459;-72
2023/10/13 13:36:54;;;;;;;54.63;1.83;;;;;;;;;;5054527;28;20562;-72
2023/10/13 13:39:29;;;;;;;55.30;1.97;;;;;;;;;;5054410;28;20468;-71
2023/10/13 13:41:56;;;;;;;54.40;1.60;;;;;;;;;;5054055;28;20482;-72
2023/10/13 13:44:28;;;;;;;54.90;1.70;;;;;;;;;;5054091;28;20454;-72
2023/10/13 13:46:56;;;;;;;55.10;1.70;;;;;;;;;;5053937;28;20452;-72
2023/10/13 13:49:29;;;;;;;54.80;1.90;;;;;;;;;;5053488;28;20994;-72
2023/10/13 13:52:04;;;;;;;54.50;1.60;;;;;;;;;;5053519;28;20455;-72
2023/10/13 13:54:31;;;;;;;54.77;1.70;;;;;;;;;;5053298;28;20459;-73
2023/10/13 13:56:58;;;;;;;54.57;2.07;;;;;;;;;;5053666;28;20969;-72
2023/10/13 13:59:25;;;;;;;55.27;1.80;;;;;;;;;;5053332;28;20463;-72
2023/10/13 14:01:53;;;;;;;54.80;2.00;;;;;;;;;;5053094;28;20529;-72
2023/10/13 14:04:20;;;;;;;54.37;1.80;;;;;;;;;;5053264;28;20505;-73
2023/10/13 14:06:47;;;;;;;54.90;1.93;;;;;;;;;;5053353;28;20460;-72
2023/10/13 14:09:32;;;;;;;54.73;1.90;;;;;;;;;;5052855;28;20473;-72
2023/10/13 14:14:49;;;;;;;56.73;2.23;;;;;;;;;;5052938;28;20579;-72
2023/10/13 14:17:16;;;;;;;54.77;1.87;;;;;;;;;;5053159;28;20451;-72
2023/10/13 14:19:45;;;;;;;55.27;1.90;;;;;;;;;;5053263;28;21017;-72
2023/10/13 14:22:13;;;;;;;55.20;2.00;;;;;;;;;;5052626;28;20574;-72
2023/10/13 14:24:47;;;;;;;54.60;1.40;;;;;;;;;;5053003;28;20455;-73
2023/10/13 14:27:17;;;;;;;55.03;1.67;;;;;;;;;;5052815;28;20453;-72
2023/10/13 14:29:44;;;;;;;55.53;1.90;;;;;;;;;;5052985;28;20468;-72
2023/10/13 14:32:13;;;;;;;55.77;2.40;;;;;;;;;;5053008;28;20451;-72
2023/10/13 14:34:40;;;;;;;55.90;2.10;;;;;;;;;;5052898;28;20455;-71
2023/10/13 14:37:08;;;;;;;55.63;2.03;;;;;;;;;;5052762;28;20447;-72
2023/10/13 14:39:36;;;;;;;55.70;1.80;;;;;;;;;;5052918;28;20470;-72
2023/10/13 14:42:06;;;;;;;55.20;1.80;;;;;;;;;;5052207;28;20485;-72
2023/10/13 14:44:33;;;;;;;55.97;2.23;;;;;;;;;;5052694;28;20446;-73
2023/10/13 14:47:00;;;;;;;55.80;2.20;;;;;;;;;;5052211;28;21131;-71
2023/10/13 14:49:27;;;;;;;55.60;2.20;;;;;;;;;;5052189;28;20477;-72
2023/10/13 14:51:55;;;;;;;56.33;2.17;;;;;;;;;;5052419;28;20449;-72
2023/10/13 14:54:32;;;;;;;58.90;3.43;;;;;;;;;;5052379;28;20542;-72
2023/10/13 14:56:59;;;;;;;55.57;1.73;;;;;;;;;;5052064;28;20455;-72
2023/10/13 14:59:32;;;;;;;55.57;1.87;;;;;;;;;;5052057;28;20806;-71
2023/10/13 15:02:00;;;;;;;55.90;2.00;;;;;;;;;;5051905;28;20493;-72
2023/10/13 15:04:28;;;;;;;55.60;1.80;;;;;;;;;;5051972;28;20954;-72
2023/10/13 15:06:56;;;;;;;55.50;1.60;;;;;;;;;;5051911;28;20452;-72
2023/10/13 15:09:24;;;;;;;56.27;2.43;;;;;;;;;;5051612;28;20997;-72
2023/10/13 15:11:53;;;;;;;55.60;1.93;;;;;;;;;;5051866;28;20446;-71
2023/10/13 15:14:22;;;;;;;56.30;2.03;;;;;;;;;;5051789;28;20454;-72
2023/10/13 15:16:52;;;;;;;55.60;1.60;;;;;;;;;;5051698;28;20545;-72
2023/10/13 15:19:19;;;;;;;55.57;1.83;;;;;;;;;;5051340;28;20891;-72
2023/10/13 15:21:50;;;;;;;55.67;2.10;;;;;;;;;;5051391;28;21006;-72
2023/10/13 15:24:17;;;;;;;55.80;1.77;;;;;;;;;;5051808;28;20503;-72
2023/10/13 15:26:47;;;;;;;55.50;1.87;;;;;;;;;;5051381;28;20927;-72
2023/10/13 15:29:16;;;;;;;56.93;2.50;;;;;;;;;;5051124;28;21016;-71
2023/10/13 15:31:54;;;;;;;56.03;1.63;;;;;;;;;;5051347;28;20448;-72
2023/10/13 15:34:23;;;;;;;55.80;2.00;;;;;;;;;;5051133;28;20518;-72
2023/10/13 15:36:54;;;;;;;56.20;2.30;;;;;;;;;;5051882;28;20516;-72
2023/10/13 15:39:23;;;;;;;55.70;2.10;;;;;;;;;;5051338;28;20483;-71
2023/10/13 15:41:52;;;;;;;56.70;3.20;;;;;;;;;;5051000;28;20490;-72
2023/10/13 15:44:20;;;;;;;55.67;1.63;;;;;;;;;;5051144;28;20452;-72
2023/10/13 15:46:49;;;;;;;56.30;2.03;;;;;;;;;;5051297;28;20807;-72
2023/10/13 15:49:16;;;;;;;55.60;1.90;;;;;;;;;;5050731;28;20886;-72
2023/10/13 15:51:44;;;;;;;55.70;1.70;;;;;;;;;;5051159;28;20458;-72
2023/10/13 15:54:15;;;;;;;56.17;1.77;;;;;;;;;;5051160;28;20450;-72
2023/10/13 15:56:43;;;;;;;55.57;1.93;;;;;;;;;;5051422;28;20451;-72
2023/10/13 15:59:10;;;;;;;55.70;1.90;;;;;;;;;;5050827;28;20849;-72
2023/10/13 16:01:38;;;;;;;55.57;1.63;;;;;;;;;;5050528;28;20489;-72
2023/10/13 16:04:10;;;;;;;55.73;1.97;;;;;;;;;;5051170;28;20459;-72
2023/10/13 16:06:37;;;;;;;55.87;1.77;;;;;;;;;;5050940;28;20473;-72
2023/10/13 16:09:13;;;;;;;57.80;3.10;;;;;;;;;;5050878;28;20468;-72
2023/10/13 16:11:40;;;;;;;55.80;1.80;;;;;;;;;;5051095;28;20931;-72
2023/10/13 16:14:10;;;;;;;56.40;2.00;;;;;;;;;;5050994;28;20469;-72
2023/10/13 16:16:37;;;;;;;56.93;2.37;;;;;;;;;;5050864;28;20445;-72
2023/10/13 16:19:05;;;;;;;56.60;1.90;;;;;;;;;;5050838;28;20470;-72
2023/10/13 16:21:33;;;;;;;56.77;2.37;;;;;;;;;;5050831;28;20484;-72
2023/10/13 16:24:00;;;;;;;57.03;2.40;;;;;;;;;;5050627;28;20447;-72
2023/10/13 16:26:30;;;;;;;58.03;2.23;;;;;;;;;;5050543;28;20543;-72
2023/10/13 16:28:58;;;;;;;56.60;2.20;;;;;;;;;;5050904;28;20490;-72
2023/10/13 16:31:27;;;;;;;56.77;1.93;;;;;;;;;;5050554;28;20458;-72
2023/10/13 16:33:58;;;;;;;56.60;2.60;;;;;;;;;;5050701;28;20459;-72
2023/10/13 16:36:26;;;;;;;70.30;3.07;;;;;;;;;;5050452;28;20836;-73
2023/10/13 16:38:57;;;;;;;55.67;1.97;;;;;;;;;;5050404;28;20466;-71
2023/10/13 16:41:24;;;;;;;55.93;2.20;;;;;;;;;;5050818;28;20513;-71
2023/10/13 16:43:52;;;;;;;56.80;2.20;;;;;;;;;;5050756;28;20451;-71
2023/10/13 16:46:19;;;;;;;56.40;2.00;;;;;;;;;;5050560;28;20451;-71
2023/10/13 16:48:49;;;;;;;55.97;2.17;;;;;;;;;;5050465;28;20474;-72
2023/10/13 16:51:16;;;;;;;56.60;2.13;;;;;;;;;;5050417;28;20444;-71